LKTB/BRQ METAR and TAF weather

Enter ICAO airport designator
Station Type Date Time Source
LKTB METAR 2021/10/22 18:30 UTC NOAA

LKTB 221830Z 22009KT CAVOK 07/M02 Q1018 NOSIG


Station Type Date Time Source
LKTB Decoded METAR 2021/10/22 18:30 UTC NOAA

Brno / Turany, Czech Republic (LKTB) 49-09N 016-42E 246M
Oct 22, 2021 - 02:30 PM EDT / 2021.10.22 1830 UTC
Wind: from the SW (220 degrees) at 10 MPH (9 KT):0
Visibility: greater than 7 mile(s):0
Temperature: 44 F (7 C)
Dew Point: 28 F (-2 C)
Relative Humidity: 52%
Pressure (altimeter): 30.06 in. Hg (1018 hPa)
ob: LKTB 221830Z 22009KT CAVOK 07/M02 Q1018 NOSIG
cycle: 18

Station Type Date Time Source
LKTB TAF 2021/10/22 18:25 UTC NOAA

TAF LKTB 221700Z 2218/2400 27010KT CAVOK
BECMG 2222/2300 32010KT PROB40
TEMPO 2304/2316 9999 BKN040
BECMG 2316/2318 34006KT

Example: see airport list